Rankin Inlet Airport
CYRT : now visible

Airfield :











YOU CAN JOIN US ON...

 
LOGIN :

Register | Disclaimer

   EN    FR    IT 

 









Legend :    VFR   Marginal VFR   IFR   Intensive IFR   Very Intensive IFR
Visi :
Ceiling :
>= 8 km
>= 3000ft
5 to 8 km
1000 to 3000 ft
1500m to 5 km
500 to 1000 ft
800 to 1500m
200 to 500 ft
< 800m
< 200 ft
Symbols :   Thunderstorms  Fog  Heavy snow  Heavy precipitations  Wind > 20 kt






- Airport Elevation : 94 ft
- IATA code : YRT


CYRT - Rankin Inlet

CURRENT METAR :
  • 121900Z 31009KT 15SM IC FEW250 M30/M34 A2988 RMK CI1 SLP126

EXPIRED METARs :
  • 121800Z 31007KT 15SM IC SKC M30/M34 A2988 RMK SLP126
  • 121700Z 30006KT 15SM IC FEW140 FEW250 M31/M34 A2988 RMK AC1CI1 SLP125

TAF TAF CYRT
Valid from the 12 at 18:00 until the 13 at 06:00 UTC


121738Z 1218/1306 30006KT P6SM FEW140
TEMPO 1218/1306 4SM IC BLSN
BECMG 1218/1220 32012KT RMK NXT FCST BY 130000Z



MET'MAP, your aeronautical weather chart ! - Copyright ORBIFLY December 2007 - Disclaimer

ORBIFLY MET'MAP TEAM :

Programming & Development : Alexandra Zaïnal
Concept & original design : Baudouin d'Aumeries
Assistance for programming : Marc-Olivier Méhu
Technical & hardware support : Manuel Goepfert

Contact : metmap@orbifly.com




SOURCES & CREDITS :

   NOAA       Earth
Advisory